Time;durP1;ratioP1;P1;durP2;ratioP2;P2;SDS_P1;SDS_P2;PMS_P1;PMS_P2;Temp;Humidity;BMP_temperature;BMP_pressure;BME280_temperature;BME280_humidity;BME280_pressure;Samples;Min_cycle;Max_cycle;Signal;HPM_P1;HPM_P2
2021/04/18 00:01:33;;;;;;;11.13;7.30;;;;;;;10.83;32.65;101575.53;4970665;28;97400;-82
2021/04/18 00:04:00;;;;;;;11.50;7.75;;;;;;;10.81;32.75;101574.56;4974630;28;97044;-81
2021/04/18 00:06:28;;;;;;;9.25;7.03;;;;;;;10.78;32.93;101584.22;4973870;28;97496;-81
2021/04/18 00:08:56;;;;;;;10.70;7.70;;;;;;;10.76;32.88;101581.50;4972820;28;98939;-82
2021/04/18 00:11:22;;;;;;;10.18;7.40;;;;;;;10.76;33.08;101592.16;4978911;28;97367;-81
2021/04/18 00:13:52;;;;;;;11.75;7.20;;;;;;;10.76;32.93;101584.16;4977605;28;97500;-80
2021/04/18 00:16:19;;;;;;;10.55;7.18;;;;;;;10.76;33.23;101584.16;4968248;28;97685;-82
2021/04/18 00:18:46;;;;;;;8.43;7.55;;;;;;;10.75;33.04;101584.13;4973206;28;99047;-82
2021/04/18 00:21:13;;;;;;;11.50;7.00;;;;;;;10.75;33.03;101589.44;4968067;28;100124;-81
2021/04/18 00:23:41;;;;;;;10.45;6.82;;;;;;;10.73;33.05;101586.75;4969333;28;97135;-81
2021/04/18 00:26:09;;;;;;;8.45;7.30;;;;;;;10.73;32.98;101588.50;4999059;28;98257;-81
2021/04/18 00:28:38;;;;;;;10.30;7.57;;;;;;;10.73;33.20;101591.16;4982545;28;99823;-82
2021/04/18 00:31:05;;;;;;;10.00;7.10;;;;;;;10.69;33.40;101589.25;4983134;28;98083;-81
2021/04/18 00:33:32;;;;;;;13.52;7.55;;;;;;;10.69;33.20;101589.25;4980954;28;97182;-81
2021/04/18 00:36:00;;;;;;;9.80;7.20;;;;;;;10.66;33.23;101594.47;4977847;28;97337;-81
2021/04/18 00:38:46;;;;;;;10.88;7.20;;;;;;;10.64;33.33;101585.53;4976563;28;99613;-81
2021/04/18 00:41:14;;;;;;;10.82;7.43;;;;;;;10.64;33.25;101588.19;4979795;28;98060;-82
2021/04/18 00:43:42;;;;;;;11.85;7.03;;;;;;;10.64;33.44;101585.53;4963496;28;97438;-82
2021/04/18 00:46:09;;;;;;;10.48;7.93;;;;;;;10.65;33.36;101590.03;4964187;28;97489;-82
2021/04/18 00:48:39;;;;;;;11.18;7.57;;;;;;;10.62;33.36;101597.88;4985167;28;100173;-81
2021/04/18 00:51:08;;;;;;;13.18;7.97;;;;;;;10.62;33.30;101606.78;4992846;28;96909;-82
2021/04/18 00:53:35;;;;;;;10.38;9.00;;;;;;;10.63;33.49;101597.03;4981990;28;97908;-80
2021/04/18 00:56:04;;;;;;;13.13;7.53;;;;;;;10.61;33.53;101590.75;4982328;28;98162;-81
2021/04/18 00:58:33;;;;;;;10.20;8.13;;;;;;;10.62;33.47;101587.22;4984264;28;101181;-82
2021/04/18 01:01:00;;;;;;;10.57;7.97;;;;;;;10.60;33.45;101583.59;5003521;28;97854;-80
2021/04/18 01:03:27;;;;;;;12.40;7.82;;;;;;;10.57;33.65;101576.44;5010221;28;96704;-81
2021/04/18 01:05:54;;;;;;;13.65;7.32;;;;;;;10.58;33.68;101587.97;5010119;28;97043;-80
2021/04/18 01:08:22;;;;;;;9.52;7.75;;;;;;;10.56;33.58;101581.69;4982876;28;98863;-82
2021/04/18 01:10:49;;;;;;;12.07;8.23;;;;;;;10.54;33.72;101586.09;4980934;28;99296;-81
2021/04/18 01:13:16;;;;;;;10.48;8.52;;;;;;;10.55;33.71;101579.91;4999674;28;97201;-82
2021/04/18 01:15:49;;;;;;;10.52;8.80;;;;;;;10.56;33.74;101587.94;4989220;28;97382;-81
2021/04/18 01:18:18;;;;;;;9.32;8.30;;;;;;;10.55;33.61;101587.88;4985280;28;99992;-81
2021/04/18 01:20:45;;;;;;;13.82;8.50;;;;;;;10.54;33.87;101588.75;4986215;28;97813;-81
2021/04/18 01:23:45;;;;;;;13.77;8.38;;;;;;;10.53;33.67;101581.59;4962060;28;96606;-82
2021/04/18 01:26:27;;;;;;;17.05;8.43;;;;;;;10.50;33.68;101589.50;4988278;28;97014;-81
2021/04/18 01:28:58;;;;;;;11.00;7.93;;;;;;;10.48;33.83;101588.53;5003807;28;99376;-81
2021/04/18 01:31:24;;;;;;;16.27;8.57;;;;;;;10.48;33.74;101585.88;4986781;28;99611;-81
2021/04/18 01:33:52;;;;;;;12.30;8.30;;;;;;;10.50;33.77;101589.50;5003652;28;96755;-81
2021/04/18 01:36:20;;;;;;;15.68;8.70;;;;;;;10.43;34.06;101596.34;4994141;28;97152;-81
2021/04/18 01:38:50;;;;;;;12.98;9.13;;;;;;;10.41;34.00;101586.47;5005563;28;98156;-81
2021/04/18 01:41:17;;;;;;;11.07;8.60;;;;;;;10.43;33.78;101584.81;4987017;28;99336;-80
2021/04/18 01:43:44;;;;;;;13.35;9.13;;;;;;;10.38;34.07;101591.66;5004571;28;96540;-81
2021/04/18 01:46:12;;;;;;;11.98;8.20;;;;;;;10.36;33.91;101594.28;5004309;28;96962;-82
2021/04/18 01:48:41;;;;;;;12.25;8.80;;;;;;;10.36;34.01;101593.38;4993694;28;98427;-81
2021/04/18 01:51:10;;;;;;;9.50;8.35;;;;;;;10.35;34.02;101594.25;4970571;28;98120;-82
2021/04/18 01:53:40;;;;;;;10.07;7.75;;;;;;;10.31;34.07;101594.97;4981349;28;96766;-82
2021/04/18 01:56:09;;;;;;;9.30;7.63;;;;;;;10.31;34.18;101592.31;4983518;28;97627;-82
2021/04/18 01:58:38;;;;;;;10.00;7.65;;;;;;;10.32;34.23;101594.16;4963995;28;101661;-82
2021/04/18 02:01:10;;;;;;;10.70;8.20;;;;;;;10.31;34.13;101594.97;4980722;28;98051;-82
2021/04/18 02:03:40;;;;;;;12.50;8.13;;;;;;;10.28;34.10;101597.53;4987940;28;97566;-82
2021/04/18 02:06:10;;;;;;;12.20;8.00;;;;;;;10.25;34.25;101594.78;4964578;28;97209;-83
2021/04/18 02:08:46;;;;;;;10.68;7.57;;;;;;;10.23;34.22;101598.28;4980783;28;97664;-83
2021/04/18 02:11:18;;;;;;;9.40;8.13;;;;;;;10.25;34.22;101590.34;4965711;28;99084;-82
2021/04/18 02:13:47;;;;;;;12.88;8.15;;;;;;;10.18;34.23;101590.97;4982379;28;98801;-82
2021/04/18 02:16:27;;;;;;;8.57;7.75;;;;;;;10.19;34.32;101599.00;4966606;28;97450;-83
2021/04/18 02:19:00;;;;;;;8.85;7.68;;;;;;;10.18;34.33;101605.19;4974829;28;99224;-82
2021/04/18 02:21:32;;;;;;;14.38;8.00;;;;;;;10.15;34.43;101599.78;4958668;28;100311;-81
2021/04/18 02:24:00;;;;;;;9.38;8.40;;;;;;;10.15;34.52;101601.53;4981370;28;96792;-82
2021/04/18 02:26:47;;;;;;;10.45;7.72;;;;;;;10.12;34.10;101599.66;4975235;28;97387;-82
2021/04/18 02:29:24;;;;;;;10.20;7.93;;;;;;;10.07;34.65;101600.34;4973244;28;97685;-82
2021/04/18 02:31:59;;;;;;;9.52;8.00;;;;;;;10.05;34.46;101592.31;4964941;28;101628;-82
2021/04/18 02:34:29;;;;;;;11.55;8.35;;;;;;;10.02;34.72;101593.94;4956486;28;97168;-83
2021/04/18 02:37:00;;;;;;;14.05;8.63;;;;;;;10.02;34.48;101592.19;4959267;28;97219;-80
2021/04/18 02:39:29;;;;;;;10.63;8.52;;;;;;;10.00;34.45;101592.97;4974550;28;98299;-82
2021/04/18 02:41:58;;;;;;;10.55;8.43;;;;;;;9.99;34.76;101580.56;4974633;28;98364;-81
2021/04/18 02:44:25;;;;;;;13.40;9.02;;;;;;;9.99;34.38;101594.72;4964913;28;97340;-82
2021/04/18 02:46:52;;;;;;;9.73;7.90;;;;;;;9.98;34.52;101590.28;4955330;28;96998;-82
2021/04/18 02:49:19;;;;;;;14.30;8.70;;;;;;;10.01;34.45;101594.81;4957313;28;99374;-83
2021/04/18 02:51:48;;;;;;;13.25;8.13;;;;;;;10.01;34.42;101593.03;4975182;28;98003;-83
2021/04/18 02:54:18;;;;;;;13.60;8.13;;;;;;;10.00;34.44;101593.91;4977646;28;96700;-82
2021/04/18 02:56:52;;;;;;;10.95;8.38;;;;;;;9.98;34.45;101584.03;4959755;28;99238;-83
2021/04/18 02:59:21;;;;;;;9.77;8.40;;;;;;;9.95;34.46;101597.25;4974427;28;97919;-83
2021/04/18 03:01:48;;;;;;;13.63;8.55;;;;;;;9.92;34.58;101595.34;4955244;28;99944;-82
2021/04/18 03:04:16;;;;;;;11.77;8.10;;;;;;;9.89;34.55;101602.31;4960950;28;97752;-83
2021/04/18 03:06:43;;;;;;;11.50;8.52;;;;;;;9.87;34.76;101596.03;4964923;28;97533;-82
2021/04/18 03:09:10;;;;;;;13.02;8.48;;;;;;;9.87;34.61;101594.28;4985094;28;100126;-82
2021/04/18 03:11:43;;;;;;;14.00;8.25;;;;;;;9.85;34.55;101603.97;4960565;28;101951;-82
2021/04/18 03:14:25;;;;;;;13.30;8.98;;;;;;;9.82;34.68;101594.97;4978184;28;97616;-82
2021/04/18 03:16:52;;;;;;;16.27;8.95;;;;;;;9.81;34.58;101588.75;4960153;28;97228;-83
2021/04/18 03:19:23;;;;;;;12.43;8.50;;;;;;;9.81;34.64;101595.84;4978099;28;98197;-83
2021/04/18 03:21:55;;;;;;;13.35;8.65;;;;;;;9.79;34.58;101587.78;4964941;28;99474;-83
2021/04/18 03:24:23;;;;;;;8.52;7.63;;;;;;;9.78;34.63;101593.03;4976136;28;98648;-83
2021/04/18 03:26:51;;;;;;;13.90;8.23;;;;;;;9.75;34.73;101585.88;4970681;28;97128;-81
2021/04/18 03:29:18;;;;;;;14.85;8.15;;;;;;;9.71;34.88;101575.97;4965391;28;99390;-83
2021/04/18 03:31:48;;;;;;;8.35;7.55;;;;;;;9.69;34.76;101577.66;4979033;28;99275;-82
2021/04/18 03:34:15;;;;;;;13.60;9.63;;;;;;;9.68;34.64;101575.84;4963591;28;97687;-83
2021/04/18 03:36:42;;;;;;;11.20;8.48;;;;;;;9.64;34.89;101573.03;4960565;28;97224;-84
2021/04/18 03:39:16;;;;;;;11.27;8.15;;;;;;;9.62;34.89;101574.72;4964744;28;101090;-82
2021/04/18 03:41:46;;;;;;;10.13;8.00;;;;;;;9.60;34.80;101593.28;4957671;28;101843;-83
2021/04/18 03:44:14;;;;;;;11.02;8.98;;;;;;;9.56;34.90;101596.66;4951190;28;97138;-83
2021/04/18 03:46:42;;;;;;;13.35;8.30;;;;;;;9.52;35.06;101584.09;4958056;28;97273;-83
2021/04/18 03:49:17;;;;;;;11.77;8.82;;;;;;;9.50;34.85;101585.78;4956449;28;99736;-83
2021/04/18 03:51:59;;;;;;;11.05;8.75;;;;;;;9.46;34.95;101583.84;4950614;28;100159;-83
2021/04/18 03:54:27;;;;;;;11.77;9.35;;;;;;;9.40;34.92;101580.94;4971438;28;97133;-84
2021/04/18 03:56:54;;;;;;;13.02;9.07;;;;;;;9.41;35.01;101587.16;4976707;28;97728;-84
2021/04/18 03:59:24;;;;;;;10.80;8.88;;;;;;;9.35;35.05;101582.53;4958102;28;99380;-83
2021/04/18 04:01:54;;;;;;;11.02;8.52;;;;;;;9.32;34.99;101587.69;4955138;28;100759;-83
2021/04/18 04:04:23;;;;;;;11.88;8.57;;;;;;;9.27;35.10;101581.31;4983882;28;96884;-83
2021/04/18 04:06:52;;;;;;;12.45;9.15;;;;;;;9.23;35.28;101584.69;4979650;28;97860;-83
2021/04/18 04:09:20;;;;;;;15.45;9.25;;;;;;;9.18;35.28;101597.81;4956966;28;99044;-81
2021/04/18 04:11:52;;;;;;;11.32;8.52;;;;;;;9.15;35.13;101594.13;4973802;28;97546;-82
2021/04/18 04:14:32;;;;;;;15.30;10.07;;;;;;;9.11;35.24;101603.72;4968624;28;97990;-83
2021/04/18 04:17:03;;;;;;;12.90;9.18;;;;;;;9.09;35.29;101608.06;4956254;28;97198;-82
2021/04/18 04:19:56;;;;;;;10.88;9.70;;;;;;;9.03;35.28;101605.16;4978439;28;97468;-83
2021/04/18 04:22:58;;;;;;;11.93;9.15;;;;;;;8.99;35.41;101596.97;4974112;28;99742;-82
2021/04/18 04:25:28;;;;;;;14.38;9.43;;;;;;;8.96;35.45;101602.16;4959914;28;96761;-83
2021/04/18 04:27:55;;;;;;;11.10;9.35;;;;;;;8.93;35.40;101600.28;4978587;28;97264;-83
2021/04/18 04:30:23;;;;;;;14.80;10.00;;;;;;;8.94;35.44;101602.13;4978443;28;99959;-82
2021/04/18 04:32:51;;;;;;;14.20;9.55;;;;;;;8.92;35.24;101601.16;4961555;28;100948;-83
2021/04/18 04:35:22;;;;;;;15.45;9.75;;;;;;;8.89;35.17;101610.75;4978972;28;96907;-82
2021/04/18 04:37:49;;;;;;;21.05;10.23;;;;;;;8.87;35.48;101605.38;4981164;28;96724;-82
2021/04/18 04:40:34;;;;;;;15.43;9.25;;;;;;;8.84;35.45;101601.69;4993915;28;97969;-83
2021/04/18 04:43:02;;;;;;;14.80;10.00;;;;;;;8.78;35.37;101612.03;4979436;28;97672;-82
2021/04/18 04:45:29;;;;;;;12.77;9.48;;;;;;;8.75;35.53;101610.16;4976797;28;97657;-83
2021/04/18 04:47:57;;;;;;;12.70;9.40;;;;;;;8.71;35.41;101615.28;4977657;28;97342;-83
2021/04/18 04:50:25;;;;;;;15.88;9.32;;;;;;;8.67;35.56;101608.03;4992678;28;97725;-84
2021/04/18 04:52:57;;;;;;;16.23;10.00;;;;;;;8.61;35.81;101618.38;4994800;28;100172;-82
2021/04/18 04:55:26;;;;;;;17.45;10.82;;;;;;;8.60;35.69;101622.81;5000750;28;96882;-83
2021/04/18 04:57:53;;;;;;;84.13;41.08;;;;;;;8.58;35.63;101618.25;5010583;28;96756;-83
2021/04/18 05:00:22;;;;;;;20.35;12.70;;;;;;;8.58;35.66;101623.56;5001073;28;99548;-83
2021/04/18 05:02:49;;;;;;;14.55;10.50;;;;;;;8.58;35.50;101628.88;4989379;28;99221;-83
2021/04/18 05:05:18;;;;;;;16.70;9.40;;;;;;;8.55;35.58;101628.75;4987237;28;96795;-84
2021/04/18 05:07:45;;;;;;;15.63;10.55;;;;;;;8.55;35.90;101626.97;4988134;28;97202;-83
2021/04/18 05:10:13;;;;;;;14.35;9.45;;;;;;;8.55;35.75;101631.41;4980513;28;97738;-83
2021/04/18 05:12:40;;;;;;;14.73;9.68;;;;;;;8.57;35.83;101638.56;4980994;28;98643;-82
2021/04/18 05:15:09;;;;;;;24.65;15.88;;;;;;;8.56;35.51;101635.84;4974856;28;96914;-83
2021/04/18 05:17:36;;;;;;;17.00;10.93;;;;;;;8.55;35.81;101640.25;4977410;28;97895;-83
2021/04/18 05:20:04;;;;;;;14.27;9.93;;;;;;;8.57;35.48;101641.22;4961459;28;100071;-83
2021/04/18 05:22:31;;;;;;;16.10;9.55;;;;;;;8.59;35.83;101641.28;4970914;28;99539;-83
2021/04/18 05:24:59;;;;;;;13.70;9.93;;;;;;;8.59;35.74;101635.97;4973529;28;96896;-83
2021/04/18 05:27:45;;;;;;;16.08;10.65;;;;;;;8.58;35.66;101634.19;4973367;28;98146;-83
2021/04/18 05:30:13;;;;;;;15.43;9.55;;;;;;;8.60;35.63;101632.50;4974076;28;99636;-83
2021/04/18 05:32:40;;;;;;;11.93;9.57;;;;;;;8.58;35.64;101635.09;4958288;28;99095;-82
2021/04/18 05:35:27;;;;;;;15.40;10.00;;;;;;;8.59;35.63;101630.66;4976778;28;97415;-83
2021/04/18 05:37:54;;;;;;;16.30;9.50;;;;;;;8.60;35.51;101627.19;4974551;28;98052;-83
2021/04/18 05:40:22;;;;;;;14.38;10.68;;;;;;;8.58;35.86;101623.56;4964668;28;99745;-83
2021/04/18 05:42:56;;;;;;;17.50;10.60;;;;;;;8.57;35.54;101627.06;4975284;28;100878;-83
2021/04/18 05:45:23;;;;;;;15.20;9.98;;;;;;;8.57;35.74;101635.91;4974326;28;98553;-89
2021/04/18 05:47:50;;;;;;;35.35;18.70;;;;;;;8.64;35.77;101634.44;4978844;28;97385;-83
2021/04/18 05:50:17;;;;;;;22.58;13.65;;;;;;;8.63;35.98;101643.22;4977225;28;99235;-81
2021/04/18 05:52:45;;;;;;;14.32;9.98;;;;;;;8.67;35.95;101634.56;4968872;28;98843;-82
2021/04/18 05:55:14;;;;;;;17.90;10.40;;;;;;;8.69;35.69;101632.88;4976904;28;97158;-82
2021/04/18 05:57:42;;;;;;;16.35;10.57;;;;;;;8.75;35.54;101635.81;4976385;28;96854;-82
2021/04/18 06:00:10;;;;;;;12.70;9.68;;;;;;;8.79;35.48;101637.72;4969239;28;99896;-81
2021/04/18 06:02:42;;;;;;;14.32;10.15;;;;;;;8.78;35.59;101646.53;4974947;28;98974;-82
2021/04/18 06:05:10;;;;;;;14.63;10.15;;;;;;;8.81;35.75;101644.00;4971316;28;98343;-83
2021/04/18 06:07:38;;;;;;;15.57;10.80;;;;;;;8.82;35.54;101651.16;4979247;28;97689;-83
2021/04/18 06:10:06;;;;;;;17.83;10.52;;;;;;;8.84;35.70;101649.47;4973501;28;100349;-83
2021/04/18 06:12:33;;;;;;;36.60;20.50;;;;;;;8.85;35.61;101648.59;4981678;28;98061;-83
2021/04/18 06:15:01;;;;;;;35.97;20.63;;;;;;;8.90;35.43;101649.69;4967973;28;96869;-82
2021/04/18 06:17:28;;;;;;;22.85;16.65;;;;;;;8.91;35.42;101652.44;4977769;28;97399;-84
2021/04/18 06:19:56;;;;;;;25.67;16.90;;;;;;;8.88;35.48;101640.75;4968623;28;99221;-83
2021/04/18 06:22:23;;;;;;;16.83;11.68;;;;;;;8.88;35.73;101640.75;4989451;28;99492;-83
2021/04/18 06:24:50;;;;;;;15.85;9.93;;;;;;;8.91;35.68;101641.81;4991268;28;96862;-82
2021/04/18 06:27:17;;;;;;;15.18;10.60;;;;;;;8.96;35.68;101639.34;4982329;28;97502;-82
2021/04/18 06:29:45;;;;;;;15.18;9.77;;;;;;;9.00;35.59;101642.19;4965471;28;99998;-83
2021/04/18 06:32:13;;;;;;;13.57;10.18;;;;;;;9.07;35.64;101644.25;4976364;28;98060;-83
2021/04/18 06:34:47;;;;;;;15.73;11.23;;;;;;;9.12;35.59;101644.44;4982881;28;97179;-84
2021/04/18 06:37:14;;;;;;;18.27;11.90;;;;;;;9.18;35.43;101647.34;4982506;28;97644;-84
2021/04/18 06:39:42;;;;;;;17.52;10.77;;;;;;;9.22;35.39;101643.97;4958381;28;99613;-83
2021/04/18 06:42:13;;;;;;;16.48;10.80;;;;;;;9.23;35.58;101645.75;4976662;28;97807;-83
2021/04/18 06:44:40;;;;;;;20.17;11.75;;;;;;;9.25;35.61;101649.41;4975958;28;96822;-82
2021/04/18 06:47:09;;;;;;;15.45;10.52;;;;;;;9.30;35.51;101646.94;4975762;28;96956;-82
2021/04/18 06:49:38;;;;;;;28.40;15.85;;;;;;;9.30;35.47;101646.94;4975606;28;97918;-81
2021/04/18 06:52:07;;;;;;;22.20;13.40;;;;;;;9.33;35.49;101637.34;4972524;28;99418;-82
2021/04/18 06:54:34;;;;;;;19.30;12.10;;;;;;;9.37;35.43;101636.59;4958403;28;97828;-82
2021/04/18 06:57:02;;;;;;;15.85;11.60;;;;;;;9.42;35.44;101635.03;4956805;28;97147;-82
2021/04/18 06:59:29;;;;;;;18.65;12.00;;;;;;;9.47;35.47;101638.81;4980140;28;98047;-82
2021/04/18 07:01:58;;;;;;;20.38;12.15;;;;;;;9.52;35.10;101637.22;4979803;28;97564;-82
2021/04/18 07:04:25;;;;;;;16.67;11.43;;;;;;;9.55;35.66;101636.47;4973763;28;97416;-82
2021/04/18 07:06:59;;;;;;;17.63;11.32;;;;;;;9.57;35.54;101637.44;4981583;28;98015;-81
2021/04/18 07:09:32;;;;;;;19.73;12.27;;;;;;;9.61;35.40;101634.03;4976919;28;98226;-82
2021/04/18 07:12:02;;;;;;;16.38;11.73;;;;;;;9.66;35.42;101633.38;4981355;28;101244;-83
2021/04/18 07:14:34;;;;;;;16.73;11.68;;;;;;;9.73;35.11;101635.41;4977857;28;97574;-85
2021/04/18 07:17:09;;;;;;;19.73;11.90;;;;;;;9.76;35.39;101638.19;4972737;28;97069;-87
2021/04/18 07:19:38;;;;;;;21.92;12.20;;;;;;;9.81;35.38;101638.38;4958271;28;97859;-85
2021/04/18 07:22:07;;;;;;;31.80;19.55;;;;;;;9.84;35.16;101634.06;4960044;28;100086;-86
2021/04/18 07:24:49;;;;;;;21.02;12.57;;;;;;;9.91;35.60;101636.09;4966816;28;99754;-85
2021/04/18 07:27:16;;;;;;;21.42;13.07;;;;;;;9.98;35.03;101635.47;4975371;28;97489;-84
2021/04/18 07:29:54;;;;;;;23.13;12.55;;;;;;;10.03;35.43;101640.94;4970495;28;101155;-82
2021/04/18 07:32:25;;;;;;;19.73;12.70;;;;;;;10.07;35.04;101643.78;4955696;28;97873;-84
2021/04/18 07:34:55;;;;;;;19.55;12.70;;;;;;;10.11;35.14;101639.50;4975208;28;97293;-86
2021/04/18 07:37:32;;;;;;;17.83;12.27;;;;;;;10.14;35.02;101644.91;4974290;28;96806;-86
2021/04/18 07:40:03;;;;;;;22.23;12.73;;;;;;;10.20;34.93;101634.50;4952249;28;99168;-81
2021/04/18 07:42:33;;;;;;;22.73;12.32;;;;;;;10.25;35.04;101635.56;4972731;28;98963;-86
2021/04/18 07:45:05;;;;;;;20.92;12.35;;;;;;;10.27;35.05;101635.63;4976224;28;97459;-82
2021/04/18 07:47:34;;;;;;;18.67;12.32;;;;;;;10.29;34.87;101623.28;4972449;28;97344;-87
2021/04/18 07:50:09;;;;;;;20.42;11.48;;;;;;;10.34;34.97;101627.03;4975917;28;97719;-83
2021/04/18 07:52:46;;;;;;;21.48;12.80;;;;;;;10.39;35.08;101625.44;4972406;28;97771;-84
2021/04/18 07:55:15;;;;;;;21.83;12.70;;;;;;;10.44;34.87;101627.44;4972483;28;97790;-84
2021/04/18 07:58:02;;;;;;;21.60;13.35;;;;;;;10.48;34.73;101636.44;4953012;28;97676;-83
2021/04/18 08:00:40;;;;;;;129.95;55.75;;;;;;;10.46;35.01;101632.81;4966666;28;99072;-87
2021/04/18 08:03:15;;;;;;;32.13;18.55;;;;;;;10.49;35.38;101628.50;4976950;28;98529;-87
2021/04/18 08:05:51;;;;;;;23.90;13.50;;;;;;;10.54;34.91;101634.00;4964935;28;97295;-85
2021/04/18 08:08:24;;;;;;;22.35;13.18;;;;;;;10.54;35.13;101626.88;4973315;28;98474;-92
2021/04/18 08:14:20;;;;;;;26.25;13.85;;;;;;;10.58;35.10;101630.56;4973544;28;99758;-85
2021/04/18 08:17:03;;;;;;;26.92;15.23;;;;;;;10.56;35.31;101638.50;4972091;28;97516;-84
2021/04/18 08:19:39;;;;;;;23.95;14.25;;;;;;;10.54;34.88;101634.00;4982097;28;97094;-86
2021/04/18 08:22:15;;;;;;;22.70;14.98;;;;;;;10.56;35.06;101632.25;4978131;28;99810;-83
2021/04/18 08:25:29;;;;;;;27.40;15.80;;;;;;;10.57;35.27;101628.75;4978025;28;98351;-88
2021/04/18 08:28:50;;;;;;;;;;;;;;;;;;;;;
2021/04/18 08:31:56;;;;;;;24.50;14.90;;;;;;;10.67;35.30;101613.16;4973899;28;97620;-87
2021/04/18 08:34:26;;;;;;;28.73;15.50;;;;;;;10.73;34.89;101615.13;4927044;28;97475;-74
2021/04/18 08:36:54;;;;;;;27.40;15.40;;;;;;;10.74;34.85;101609.84;4934054;28;99074;-72
2021/04/18 08:39:26;;;;;;;27.10;16.55;;;;;;;10.77;34.74;101609.03;4952357;28;97132;-72
2021/04/18 08:41:56;;;;;;;24.65;15.35;;;;;;;10.79;34.77;101615.34;4928574;28;97243;-72
2021/04/18 08:44:27;;;;;;;27.00;15.40;;;;;;;10.67;34.92;101615.81;4931601;28;97560;-73
2021/04/18 08:46:56;;;;;;;36.10;22.30;;;;;;;10.68;34.89;101622.06;4932033;28;97184;-72
2021/04/18 08:49:31;;;;;;;40.72;23.73;;;;;;;10.68;35.05;101632.69;4929662;28;97495;-72
2021/04/18 08:51:59;;;;;;;33.88;19.83;;;;;;;10.71;34.94;101631.03;4930794;28;97195;-74
2021/04/18 08:54:29;;;;;;;37.22;19.92;;;;;;;10.74;34.97;101627.59;4929186;28;98465;-73
2021/04/18 08:56:58;;;;;;;24.20;16.27;;;;;;;10.69;35.16;101622.09;4911630;28;98787;-72
2021/04/18 08:59:26;;;;;;;24.65;14.18;;;;;;;10.76;35.02;101624.09;4931683;28;97791;-72
2021/04/18 09:02:04;;;;;;;22.35;14.18;;;;;;;10.83;35.61;101623.47;4932580;28;97258;-72
2021/04/18 09:04:34;;;;;;;21.00;14.52;;;;;;;10.92;34.75;101628.19;4929506;28;98340;-73
2021/04/18 09:07:03;;;;;;;25.35;16.13;;;;;;;10.99;34.70;101638.19;4929659;28;98089;-71
2021/04/18 09:09:31;;;;;;;27.80;16.13;;;;;;;11.04;34.88;101632.16;4931916;28;97529;-72
2021/04/18 09:11:59;;;;;;;21.10;13.00;;;;;;;11.14;34.54;101631.59;4929979;28;96918;-72
2021/04/18 09:14:28;;;;;;;23.75;13.73;;;;;;;11.13;34.57;101631.56;4924841;28;98523;-72
2021/04/18 09:17:14;;;;;;;20.38;13.45;;;;;;;11.21;34.68;101632.72;4931399;28;96782;-72
2021/04/18 09:19:46;;;;;;;22.25;16.50;;;;;;;11.25;34.33;101642.59;4926909;28;97480;-70
2021/04/18 09:22:15;;;;;;;28.75;18.50;;;;;;;11.29;34.43;101635.63;4920812;28;96830;-72
2021/04/18 09:24:46;;;;;;;27.75;18.05;;;;;;;11.29;34.41;101638.28;4928483;28;97916;-73
2021/04/18 09:27:17;;;;;;;81.13;45.50;;;;;;;11.33;34.22;101645.53;4946863;28;97587;-74
2021/04/18 09:29:47;;;;;;;43.75;26.67;;;;;;;11.36;34.37;101643.88;4915693;28;96828;-73
2021/04/18 09:32:17;;;;;;;34.33;23.08;;;;;;;11.39;34.43;101646.66;4935391;28;96812;-71
2021/04/18 09:34:47;;;;;;;32.72;20.05;;;;;;;11.38;34.43;101643.94;4937794;28;97684;-75
2021/04/18 09:37:17;;;;;;;26.48;15.05;;;;;;;11.40;34.34;101636.88;4905801;28;99983;-71
2021/04/18 09:39:48;;;;;;;24.25;14.95;;;;;;;11.46;34.39;101638.00;4920064;28;97528;-72
2021/04/18 09:42:16;;;;;;;24.17;15.70;;;;;;;11.52;34.44;101638.19;4936808;28;97085;-73
2021/04/18 09:44:45;;;;;;;23.77;15.07;;;;;;;11.53;34.56;101633.75;4920366;28;98012;-74
2021/04/18 09:47:23;;;;;;;20.38;14.98;;;;;;;11.45;34.62;101628.16;4932070;28;97143;-73
2021/04/18 09:49:54;;;;;;;20.77;13.55;;;;;;;11.44;34.66;101631.69;4928765;28;97212;-72
2021/04/18 09:52:34;;;;;;;20.00;13.00;;;;;;;11.46;34.66;101627.31;4916091;28;97176;-72
2021/04/18 09:55:22;;;;;;;22.50;13.80;;;;;;;11.48;34.98;101630.94;4928626;28;98620;-77
2021/04/18 09:57:51;;;;;;;20.63;12.40;;;;;;;11.49;34.56;101637.19;4941690;28;98560;-75
2021/04/18 10:00:25;;;;;;;21.02;14.98;;;;;;;11.50;34.64;101633.66;4926030;28;96987;-73
2021/04/18 10:03:10;;;;;;;23.90;15.30;;;;;;;11.53;34.73;101631.97;4925784;28;98257;-72
2021/04/18 10:05:56;;;;;;;24.70;16.95;;;;;;;11.55;34.51;101627.63;4910950;28;97511;-71
2021/04/18 10:08:25;;;;;;;23.92;16.35;;;;;;;11.58;34.54;101638.34;4926013;28;97277;-73
2021/04/18 10:10:54;;;;;;;22.92;13.80;;;;;;;11.56;34.44;101629.41;4933457;28;97170;-74
2021/04/18 10:13:42;;;;;;;20.73;13.35;;;;;;;11.59;35.08;101628.59;4935797;28;97239;-73
2021/04/18 10:16:22;;;;;;;22.33;14.38;;;;;;;11.61;34.37;101630.47;4936266;28;99977;-73
2021/04/18 10:19:10;;;;;;;23.13;14.23;;;;;;;11.63;34.93;101619.84;4934319;28;96847;-73
2021/04/18 10:21:39;;;;;;;22.27;13.65;;;;;;;11.61;34.63;101622.47;4918239;28;96919;-74
2021/04/18 10:24:30;;;;;;;22.85;15.07;;;;;;;11.66;35.14;101641.25;4935134;28;96800;-73
2021/04/18 10:26:57;;;;;;;23.88;15.23;;;;;;;11.63;34.40;101647.41;4932946;28;98623;-74
2021/04/18 10:29:24;;;;;;;21.67;13.98;;;;;;;11.65;34.48;101645.69;4930610;28;97446;-73
2021/04/18 10:31:51;;;;;;;23.27;13.55;;;;;;;11.66;34.65;101650.16;4931632;28;97515;-73
2021/04/18 10:34:18;;;;;;;25.65;14.45;;;;;;;11.65;34.91;101645.69;4932106;28;97496;-74
2021/04/18 10:36:47;;;;;;;20.98;14.10;;;;;;;11.67;34.73;101649.28;4919308;28;98666;-77
2021/04/18 10:39:14;;;;;;;20.90;12.95;;;;;;;11.67;34.66;101645.75;4940889;28;98149;-75
2021/04/18 10:41:41;;;;;;;19.35;12.77;;;;;;;11.64;34.79;101651.88;4930936;28;97231;-76
2021/04/18 10:44:08;;;;;;;23.35;13.45;;;;;;;11.63;34.83;101641.19;4945494;28;96825;-74
2021/04/18 10:46:45;;;;;;;20.67;12.80;;;;;;;11.66;34.91;101647.50;4926760;28;98546;-74
2021/04/18 10:49:13;;;;;;;19.98;14.55;;;;;;;11.71;34.87;101642.28;4937007;28;97354;-72
2021/04/18 10:51:41;;;;;;;21.33;13.23;;;;;;;11.72;35.00;101646.78;4928674;28;97303;-74
2021/04/18 10:54:09;;;;;;;24.83;12.77;;;;;;;11.71;34.71;101636.97;4929881;28;96958;-73
2021/04/18 10:56:37;;;;;;;24.63;14.57;;;;;;;11.66;34.92;101636.84;4913067;28;97283;-74
2021/04/18 10:59:04;;;;;;;25.15;14.50;;;;;;;11.66;35.15;101635.94;4929421;28;97576;-74
2021/04/18 11:01:32;;;;;;;23.05;14.52;;;;;;;11.57;35.20;101636.56;4933731;28;97473;-73
2021/04/18 11:03:59;;;;;;;25.30;14.15;;;;;;;11.60;35.07;101633.06;4934509;28;97508;-74
2021/04/18 11:06:27;;;;;;;24.17;14.30;;;;;;;11.58;35.30;101627.69;4932552;28;97103;-74
2021/04/18 11:08:55;;;;;;;18.60;13.52;;;;;;;11.55;35.44;101627.63;4931813;28;99009;-75
2021/04/18 11:11:24;;;;;;;20.65;12.60;;;;;;;11.50;35.50;101631.91;4931103;28;97262;-72
2021/04/18 11:13:52;;;;;;;20.83;13.68;;;;;;;11.46;35.49;101630.00;4932601;28;97247;-74
2021/04/18 11:16:19;;;;;;;20.17;13.00;;;;;;;11.50;35.63;101629.25;4934446;28;100641;-75
2021/04/18 11:18:47;;;;;;;17.95;12.52;;;;;;;11.50;35.53;101626.56;4932600;28;99719;-74
2021/04/18 11:21:14;;;;;;;19.95;13.68;;;;;;;11.50;35.58;101629.25;4917231;28;97270;-73
2021/04/18 11:23:41;;;;;;;19.88;14.23;;;;;;;11.50;35.55;101634.56;4933234;28;97253;-73
2021/04/18 11:26:08;;;;;;;19.42;13.07;;;;;;;11.52;35.64;101631.94;4931974;28;99813;-73
2021/04/18 11:28:36;;;;;;;18.20;13.55;;;;;;;11.53;35.63;101634.66;4929666;28;97226;-73
2021/04/18 11:31:04;;;;;;;59.20;36.25;;;;;;;11.47;35.79;101623.78;4930710;28;96948;-73
2021/04/18 11:33:31;;;;;;;23.02;17.40;;;;;;;11.44;35.88;101625.47;4914009;28;97085;-72
2021/04/18 11:36:02;;;;;;;19.40;13.93;;;;;;;11.40;35.94;101635.13;4927604;28;99770;-75
2021/04/18 11:38:29;;;;;;;20.08;13.45;;;;;;;11.40;35.99;101627.13;4929224;28;98090;-74